createdAt,value
2019-04-14T00:00:33.625Z,44.93
2019-04-14T00:03:23.694Z,44.23
2019-04-14T00:06:00.775Z,44.17
2019-04-14T00:08:32.986Z,50.17
2019-04-14T00:11:06.166Z,49.40
2019-04-14T00:13:34.945Z,77.50
2019-04-14T00:16:05.305Z,53.33
2019-04-14T00:18:35.901Z,68.23
2019-04-14T00:21:10.799Z,57.53
2019-04-14T00:23:41.374Z,59.13
2019-04-14T00:26:42.286Z,57.83
2019-04-14T00:29:13.085Z,63.23
2019-04-14T00:31:51.884Z,51.90
2019-04-14T00:34:33.126Z,53.00
2019-04-14T00:37:33.961Z,119.27
2019-04-14T00:40:10.498Z,61.77
2019-04-14T00:42:56.117Z,55.57
2019-04-14T00:45:41.587Z,57.17
2019-04-14T00:48:14.108Z,112.77
2019-04-14T00:50:43.085Z,57.03
2019-04-14T00:53:20.992Z,65.23
2019-04-14T00:55:51.235Z,56.73
2019-04-14T00:58:21.447Z,61.30
2019-04-14T01:01:00.447Z,57.33
2019-04-14T01:03:48.264Z,55.33
2019-04-14T01:06:25.720Z,61.17
2019-04-14T01:08:58.486Z,50.80
2019-04-14T01:11:29.379Z,55.37
2019-04-14T01:14:03.649Z,53.80
2019-04-14T01:16:47.350Z,50.60
2019-04-14T01:19:19.876Z,48.47
2019-04-14T01:21:52.523Z,45.23
2019-04-14T01:24:25.433Z,47.57
2019-04-14T01:26:57.925Z,42.40
2019-04-14T01:29:42.725Z,41.03
2019-04-14T01:32:17.569Z,44.27
2019-04-14T01:34:51.199Z,41.80
2019-04-14T01:37:29.527Z,40.33
2019-04-14T01:40:03.185Z,43.07
2019-04-14T01:42:37.503Z,46.07
2019-04-14T01:45:12.182Z,40.57
2019-04-14T01:47:44.906Z,44.67
2019-04-14T01:50:23.478Z,40.87
2019-04-14T01:53:14.635Z,45.27
2019-04-14T01:56:14.382Z,43.00
2019-04-14T01:58:53.447Z,46.83
2019-04-14T02:01:41.486Z,45.27
2019-04-14T02:04:11.873Z,47.00
2019-04-14T02:06:43.869Z,45.13
2019-04-14T02:09:18.630Z,40.87
2019-04-14T02:11:51.028Z,41.70
2019-04-14T02:14:23.261Z,42.10
2019-04-14T02:16:57.103Z,43.17
2019-04-14T02:19:26.419Z,43.43
2019-04-14T02:22:02.722Z,42.93
2019-04-14T02:24:35.275Z,42.77
2019-04-14T02:27:16.638Z,43.57
2019-04-14T02:29:51.545Z,42.67
2019-04-14T02:32:49.866Z,44.80
2019-04-14T02:35:28.720Z,38.17
2019-04-14T02:38:16.177Z,40.97
2019-04-14T02:43:19.741Z,41.17
2019-04-14T02:45:50.500Z,38.87
2019-04-14T02:48:36.046Z,47.17
2019-04-14T02:50:56.121Z,45.03
2019-04-14T02:53:57.708Z,48.10
2019-04-14T02:56:16.438Z,46.57
2019-04-14T02:58:59.902Z,47.07
2019-04-14T03:01:35.325Z,43.70
2019-04-14T03:03:50.766Z,43.03
2019-04-14T03:06:21.645Z,51.43
2019-04-14T03:08:59.142Z,44.80
2019-04-14T03:11:27.882Z,51.40
2019-04-14T03:13:58.412Z,44.90
2019-04-14T03:16:32.977Z,49.40
2019-04-14T03:19:35.607Z,43.10
2019-04-14T03:22:21.589Z,44.73
2019-04-14T03:24:50.309Z,43.93
2019-04-14T03:30:57.825Z,44.03
2019-04-14T03:36:26.828Z,44.23
2019-04-14T03:38:26.429Z,43.20
2019-04-14T03:40:50.667Z,43.63
2019-04-14T03:43:24.909Z,44.23
2019-04-14T03:46:04.848Z,43.00
2019-04-14T03:51:03.788Z,37.37
2019-04-14T03:56:14.864Z,36.10
2019-04-14T03:58:46.508Z,41.77
2019-04-14T04:01:19.341Z,40.73
2019-04-14T04:03:49.941Z,42.00
2019-04-14T04:06:25.559Z,41.97
2019-04-14T04:08:55.279Z,41.27
2019-04-14T04:11:25.735Z,45.20
2019-04-14T04:13:58.550Z,37.40
2019-04-14T04:16:46.801Z,42.47
2019-04-14T04:19:23.345Z,38.47
2019-04-14T04:22:10.622Z,44.00
2019-04-14T04:25:05.119Z,41.50
2019-04-14T04:27:46.178Z,41.87
2019-04-14T04:30:34.823Z,42.83
2019-04-14T04:33:22.007Z,45.90
2019-04-14T04:35:59.648Z,40.50
2019-04-14T04:38:53.497Z,38.93
2019-04-14T04:41:28.005Z,42.43
2019-04-14T04:44:00.716Z,38.40
2019-04-14T04:46:31.051Z,46.20
2019-04-14T04:49:09.846Z,44.87
2019-04-14T04:51:37.846Z,41.30
2019-04-14T04:54:08.179Z,39.93
2019-04-14T04:56:38.356Z,43.13
2019-04-14T05:02:11.416Z,41.00
2019-04-14T05:04:41.577Z,39.50
2019-04-14T05:07:19.132Z,40.90
2019-04-14T05:10:09.054Z,40.57
2019-04-14T05:12:47.943Z,36.47
2019-04-14T05:15:40.262Z,35.77
2019-04-14T05:18:15.604Z,43.53
2019-04-14T05:20:44.935Z,33.57
2019-04-14T05:23:23.470Z,35.70
2019-04-14T05:25:56.080Z,32.87
2019-04-14T05:28:26.584Z,36.40
2019-04-14T05:30:56.871Z,36.47
2019-04-14T05:33:27.150Z,37.67
2019-04-14T05:35:57.429Z,32.57
2019-04-14T05:38:30.303Z,34.23
2019-04-14T05:40:58.370Z,35.60
2019-04-14T05:43:46.714Z,34.13
2019-04-14T05:46:08.202Z,34.73
2019-04-14T05:48:38.116Z,40.90
2019-04-14T05:51:08.498Z,31.83
2019-04-14T05:53:39.411Z,33.33
2019-04-14T05:56:12.206Z,31.60
2019-04-14T05:58:44.795Z,30.70
2019-04-14T06:01:18.298Z,31.13
2019-04-14T06:03:47.634Z,30.63
2019-04-14T06:06:17.001Z,29.33
2019-04-14T06:08:46.296Z,34.30
2019-04-14T06:11:20.172Z,28.17
2019-04-14T06:13:51.972Z,30.10
2019-04-14T06:16:22.850Z,37.10
2019-04-14T06:18:52.271Z,31.60
2019-04-14T06:21:26.578Z,32.83
2019-04-14T06:24:01.341Z,32.00
2019-04-14T06:26:32.795Z,28.17
2019-04-14T06:29:04.707Z,28.63
2019-04-14T06:31:53.478Z,33.40
2019-04-14T06:34:50.535Z,31.27
2019-04-14T06:37:27.543Z,34.27
2019-04-14T06:39:56.909Z,36.97
2019-04-14T06:42:26.374Z,33.80
2019-04-14T06:44:56.448Z,30.33
2019-04-14T06:47:26.189Z,30.23
2019-04-14T06:49:55.928Z,33.30
2019-04-14T06:52:25.637Z,32.23
2019-04-14T06:54:55.349Z,32.87
2019-04-14T06:57:25.366Z,30.10
2019-04-14T06:59:59.307Z,32.60
2019-04-14T07:02:29.228Z,28.80
2019-04-14T07:05:02.388Z,26.77
2019-04-14T07:07:35.440Z,26.90
2019-04-14T07:10:10.186Z,30.27
2019-04-14T07:12:54.397Z,31.00
2019-04-14T07:15:33.349Z,31.57
2019-04-14T07:18:12.188Z,31.57
2019-04-14T07:20:59.191Z,31.97
2019-04-14T07:24:00.264Z,28.27
2019-04-14T07:26:43.080Z,30.90
2019-04-14T07:29:14.835Z,30.50
2019-04-14T07:32:06.104Z,34.50
2019-04-14T07:34:48.757Z,37.33
2019-04-14T07:37:46.706Z,28.90
2019-04-14T07:40:47.575Z,32.53
2019-04-14T07:43:49.196Z,28.90
2019-04-14T07:46:47.554Z,35.60
2019-04-14T07:49:47.045Z,32.70
2019-04-14T07:52:54.483Z,33.27
2019-04-14T07:55:48.933Z,38.10
2019-04-14T07:58:48.046Z,28.00
2019-04-14T08:01:33.560Z,25.90
2019-04-14T08:04:14.896Z,33.20
2019-04-14T08:06:53.772Z,30.00
2019-04-14T08:09:24.420Z,28.77
2019-04-14T08:11:58.589Z,32.23
2019-04-14T08:14:29.277Z,28.27
2019-04-14T08:16:59.174Z,28.67
2019-04-14T08:19:33.307Z,26.00
2019-04-14T08:22:04.460Z,26.20
2019-04-14T08:24:39.219Z,31.73
2019-04-14T08:27:11.979Z,29.60
2019-04-14T08:29:44.047Z,31.10
2019-04-14T08:32:19.563Z,31.63
2019-04-14T08:34:50.807Z,26.47
2019-04-14T08:37:38.048Z,23.63
2019-04-14T08:40:14.643Z,26.93
2019-04-14T08:43:03.299Z,27.47
2019-04-14T08:45:58.400Z,30.63
2019-04-14T08:52:38.979Z,25.30
2019-04-14T08:55:35.279Z,23.33
2019-04-14T08:58:30.794Z,26.80
2019-04-14T09:01:08.021Z,27.57
2019-04-14T09:03:54.944Z,23.77
2019-04-14T09:06:57.567Z,28.53
2019-04-14T09:09:39.424Z,23.10
2019-04-14T09:12:42.679Z,24.27
2019-04-14T09:15:32.256Z,30.17
2019-04-14T09:18:09.950Z,27.87
2019-04-14T09:20:52.272Z,28.17
2019-04-14T09:23:20.401Z,24.30
2019-04-14T09:25:55.852Z,27.00
2019-04-14T09:28:35.539Z,26.43
2019-04-14T09:31:11.851Z,28.20
2019-04-14T09:33:49.104Z,25.50
2019-04-14T09:36:24.301Z,26.03
2019-04-14T09:39:02.824Z,24.50
2019-04-14T09:41:42.738Z,25.10
2019-04-14T09:44:41.970Z,24.37
2019-04-14T09:47:27.365Z,21.50
2019-04-14T09:50:25.135Z,26.20
2019-04-14T09:53:11.765Z,20.93
2019-04-14T09:56:07.559Z,27.57
2019-04-14T09:59:03.948Z,22.27
2019-04-14T10:01:42.583Z,25.73
2019-04-14T10:04:16.875Z,22.00
2019-04-14T10:06:54.376Z,22.67
2019-04-14T10:09:36.195Z,22.73
2019-04-14T10:12:14.030Z,23.77
2019-04-14T10:14:44.907Z,18.17
2019-04-14T10:17:17.506Z,19.77
2019-04-14T10:19:48.103Z,25.77
2019-04-14T10:22:18.683Z,27.47
2019-04-14T10:24:53.491Z,23.33
2019-04-14T10:27:26.734Z,22.50
2019-04-14T10:30:02.839Z,21.47
2019-04-14T10:32:38.967Z,25.80
2019-04-14T10:35:08.418Z,24.73
2019-04-14T10:37:43.362Z,24.47
2019-04-14T10:40:14.005Z,24.00
2019-04-14T10:42:43.401Z,20.43
2019-04-14T10:45:18.507Z,26.77
2019-04-14T10:47:50.526Z,22.03
2019-04-14T10:50:30.729Z,23.87
2019-04-14T10:52:52.779Z,20.87
2019-04-14T10:55:22.177Z,24.97
2019-04-14T10:57:51.548Z,21.03
2019-04-14T11:00:31.515Z,22.00
2019-04-14T11:03:02.492Z,21.43
2019-04-14T11:05:42.030Z,21.30
2019-04-14T11:08:12.228Z,21.60
2019-04-14T11:10:41.573Z,23.00
2019-04-14T11:13:11.305Z,26.40
2019-04-14T11:15:40.647Z,26.03
2019-04-14T11:18:10.002Z,21.93
2019-04-14T11:20:41.358Z,23.70
2019-04-14T11:23:15.847Z,29.37
2019-04-14T11:25:45.188Z,23.07
2019-04-14T11:28:14.490Z,18.97
2019-04-14T11:30:45.519Z,25.10
2019-04-14T11:33:42.809Z,21.77
2019-04-14T11:36:30.242Z,23.30
2019-04-14T11:39:05.546Z,24.00
2019-04-14T11:41:34.915Z,22.87
2019-04-14T11:44:04.931Z,22.50
2019-04-14T11:46:34.310Z,20.37
2019-04-14T11:49:05.587Z,24.17
2019-04-14T11:51:36.780Z,25.83
2019-04-14T11:54:07.727Z,20.70
2019-04-14T11:56:37.432Z,19.53
2019-04-14T11:59:06.731Z,21.03
2019-04-14T12:01:48.051Z,24.23
2019-04-14T12:04:30.113Z,27.53
2019-04-14T12:07:23.947Z,24.63
2019-04-14T12:10:05.012Z,21.00
2019-04-14T12:12:34.363Z,25.00
2019-04-14T12:15:07.467Z,25.53
2019-04-14T12:17:35.621Z,23.20
2019-04-14T12:20:14.607Z,21.03
2019-04-14T12:22:50.841Z,20.87
2019-04-14T12:25:20.716Z,23.97
2019-04-14T12:27:51.303Z,20.77
2019-04-14T12:30:24.912Z,31.77
2019-04-14T12:32:57.476Z,22.77
2019-04-14T12:35:27.483Z,23.53
2019-04-14T12:37:58.357Z,22.33
2019-04-14T12:40:27.929Z,24.83
2019-04-14T12:43:08.559Z,24.60
2019-04-14T12:45:49.154Z,24.73
2019-04-14T12:48:29.198Z,25.37
2019-04-14T12:51:02.675Z,19.87
2019-04-14T12:53:32.003Z,21.00
2019-04-14T12:56:09.215Z,23.07
2019-04-14T12:59:10.135Z,26.40
2019-04-14T13:01:48.147Z,23.03
2019-04-14T13:04:17.806Z,30.40
2019-04-14T13:06:47.187Z,24.07
2019-04-14T13:09:25.989Z,21.67
2019-04-14T13:11:55.329Z,22.63
2019-04-14T13:14:27.891Z,26.10
2019-04-14T13:17:07.532Z,20.83
2019-04-14T13:19:39.167Z,20.60
2019-04-14T13:22:11.262Z,26.10
2019-04-14T13:24:40.615Z,23.43
2019-04-14T13:27:13.654Z,18.83
2019-04-14T13:29:43.037Z,22.67
2019-04-14T13:32:13.399Z,18.77
2019-04-14T13:34:44.520Z,30.13
2019-04-14T13:37:19.227Z,20.40
2019-04-14T13:39:48.581Z,22.87
2019-04-14T13:42:17.926Z,19.00
2019-04-14T13:44:47.386Z,20.63
2019-04-14T13:47:21.305Z,20.27
2019-04-14T13:49:50.603Z,21.73
2019-04-14T13:52:20.006Z,18.50
2019-04-14T13:54:49.347Z,20.90
2019-04-14T13:57:24.595Z,19.50
2019-04-14T13:59:53.912Z,22.97
2019-04-14T14:02:28.392Z,19.63
2019-04-14T14:04:58.144Z,16.70
2019-04-14T14:07:27.467Z,21.53
2019-04-14T14:09:57.242Z,19.47
2019-04-14T14:12:43.887Z,16.73
2019-04-14T14:15:33.491Z,15.97
2019-04-14T14:18:25.306Z,16.30
2019-04-14T14:21:17.214Z,14.87
2019-04-14T14:24:17.672Z,19.00
2019-04-14T14:26:48.045Z,14.33
2019-04-14T14:29:17.368Z,15.90
2019-04-14T14:31:46.709Z,14.63
2019-04-14T14:34:20.885Z,14.47
2019-04-14T14:36:50.744Z,15.77
2019-04-14T14:39:22.881Z,13.67
2019-04-14T14:41:54.250Z,13.10
2019-04-14T14:44:25.868Z,17.67
2019-04-14T14:47:05.117Z,11.07
2019-04-14T14:49:55.905Z,14.00
2019-04-14T14:52:25.398Z,14.33
2019-04-14T14:54:56.914Z,11.83
2019-04-14T14:57:26.827Z,11.33
2019-04-14T15:00:39.611Z,12.83
2019-04-14T15:03:09.490Z,15.03
2019-04-14T15:05:40.857Z,17.93
2019-04-14T15:08:12.301Z,19.00
2019-04-14T15:10:41.653Z,13.90
2019-04-14T15:13:15.255Z,18.00
2019-04-14T15:15:46.072Z,15.73
2019-04-14T15:18:15.612Z,16.83
2019-04-14T15:20:45.157Z,15.43
2019-04-14T15:23:24.250Z,18.00
2019-04-14T15:25:45.624Z,18.87
2019-04-14T15:28:15.852Z,16.53
2019-04-14T15:30:47.814Z,15.07
2019-04-14T15:33:17.810Z,16.77
2019-04-14T15:35:51.505Z,17.07
2019-04-14T15:38:24.943Z,17.40
2019-04-14T15:40:54.376Z,18.03
2019-04-14T15:43:28.320Z,18.60
2019-04-14T15:45:57.960Z,16.33
2019-04-14T15:48:30.331Z,21.67
2019-04-14T15:51:01.574Z,17.80
2019-04-14T15:53:38.505Z,19.37
2019-04-14T15:56:09.179Z,22.50
2019-04-14T15:59:18.323Z,21.33
2019-04-14T16:02:15.951Z,22.60
2019-04-14T16:05:01.706Z,17.30
2019-04-14T16:07:45.430Z,17.57
2019-04-14T16:10:27.416Z,19.67
2019-04-14T16:13:26.396Z,19.90
2019-04-14T16:16:01.905Z,18.53
2019-04-14T16:18:47.096Z,17.57
2019-04-14T16:21:21.948Z,18.23
2019-04-14T16:23:51.386Z,17.70
2019-04-14T16:26:37.882Z,17.30
2019-04-14T16:29:15.362Z,17.90
2019-04-14T16:32:26.544Z,16.37
2019-04-14T16:35:20.880Z,20.00
2019-04-14T16:37:50.255Z,16.10
2019-04-14T16:40:19.700Z,17.17
2019-04-14T16:42:49.188Z,17.47
2019-04-14T16:45:18.970Z,16.70
2019-04-14T16:47:51.069Z,21.17
2019-04-14T16:50:25.546Z,20.37
2019-04-14T16:53:13.330Z,20.37
2019-04-14T16:56:15.830Z,18.43
2019-04-14T16:58:54.098Z,18.40
2019-04-14T17:01:36.284Z,21.43
2019-04-14T17:04:05.687Z,20.80
2019-04-14T17:06:35.384Z,20.60
2019-04-14T17:09:07.977Z,21.60
2019-04-14T17:11:42.473Z,18.17
2019-04-14T17:14:32.102Z,22.20
2019-04-14T17:17:09.489Z,17.60
2019-04-14T17:19:50.026Z,19.37
2019-04-14T17:22:50.784Z,20.73
2019-04-14T17:25:26.524Z,23.30
2019-04-14T17:28:28.938Z,22.10
2019-04-14T17:31:28.225Z,22.17
2019-04-14T17:34:25.369Z,18.33
2019-04-14T17:37:08.547Z,21.70
2019-04-14T17:39:45.305Z,20.50
2019-04-14T17:42:30.626Z,21.17
2019-04-14T17:45:24.497Z,22.20
2019-04-14T17:48:19.703Z,23.80
2019-04-14T17:51:06.333Z,22.50
2019-04-14T17:54:12.377Z,25.73
2019-04-14T17:57:03.482Z,24.37
2019-04-14T17:59:41.226Z,25.30
2019-04-14T18:02:34.452Z,21.73
2019-04-14T18:05:06.795Z,21.63
2019-04-14T18:08:13.880Z,21.90
2019-04-14T18:11:02.373Z,23.40
2019-04-14T18:13:54.446Z,21.17
2019-04-14T18:16:46.012Z,21.03
2019-04-14T18:19:34.586Z,21.27
2019-04-14T18:22:04.143Z,23.60
2019-04-14T18:24:42.203Z,19.87
2019-04-14T18:27:10.877Z,21.27
2019-04-14T18:29:57.313Z,18.93
2019-04-14T18:32:51.549Z,17.37
2019-04-14T18:35:30.551Z,22.43
2019-04-14T18:38:14.816Z,16.90
2019-04-14T18:41:01.575Z,21.50
2019-04-14T18:43:48.059Z,18.40
2019-04-14T18:46:42.275Z,18.43
2019-04-14T18:49:49.620Z,17.77
2019-04-14T18:52:31.106Z,16.53
2019-04-14T18:55:19.924Z,17.90
2019-04-14T18:58:02.675Z,15.73
2019-04-14T19:00:45.550Z,15.27
2019-04-14T19:03:15.272Z,13.50
2019-04-14T19:05:45.692Z,13.60
2019-04-14T19:08:15.923Z,11.10
2019-04-14T19:10:53.086Z,14.33
2019-04-14T19:13:28.942Z,14.07
2019-04-14T19:16:11.548Z,12.43
2019-04-14T19:18:43.924Z,13.40
2019-04-14T19:21:20.171Z,11.60
2019-04-14T19:23:50.519Z,13.03
2019-04-14T19:26:21.421Z,11.13
2019-04-14T19:28:50.906Z,10.73
2019-04-14T19:31:22.788Z,10.07
2019-04-14T19:33:52.144Z,9.53
2019-04-14T19:36:21.776Z,11.80
2019-04-14T19:38:51.259Z,12.07
2019-04-14T19:41:20.888Z,10.87
2019-04-14T19:43:52.753Z,12.10
2019-04-14T19:46:31.053Z,12.10
2019-04-14T19:49:00.863Z,9.57
2019-04-14T19:51:30.325Z,11.37
2019-04-14T19:53:59.779Z,11.73
2019-04-14T19:56:29.128Z,10.53
2019-04-14T19:58:58.497Z,11.20
2019-04-14T20:01:29.376Z,9.20
2019-04-14T20:03:58.732Z,9.67
2019-04-14T20:06:28.142Z,8.60
2019-04-14T20:08:57.775Z,10.73
2019-04-14T20:11:27.695Z,8.33
2019-04-14T20:14:01.546Z,10.77
2019-04-14T20:16:59.481Z,10.57
2019-04-14T20:19:47.015Z,8.30
2019-04-14T20:22:38.654Z,9.47
2019-04-14T20:25:33.051Z,9.73
2019-04-14T20:28:05.806Z,8.80
2019-04-14T20:30:49.618Z,9.03
2019-04-14T20:33:19.662Z,8.50
2019-04-14T20:35:56.672Z,10.83
2019-04-14T20:38:26.616Z,10.03
2019-04-14T20:41:01.198Z,9.63
2019-04-14T20:43:35.716Z,7.43
2019-04-14T20:46:05.689Z,8.63
2019-04-14T20:48:35.646Z,10.17
2019-04-14T20:51:05.043Z,9.57
2019-04-14T20:53:34.395Z,7.97
2019-04-14T20:56:14.403Z,7.10
2019-04-14T20:58:54.514Z,9.07
2019-04-14T21:01:16.298Z,7.37
2019-04-14T21:04:19.762Z,10.33
2019-04-14T21:07:10.789Z,9.27
2019-04-14T21:09:47.049Z,7.77
2019-04-14T21:12:43.271Z,8.47
2019-04-14T21:15:19.955Z,8.47
2019-04-14T21:18:08.278Z,7.87
2019-04-14T21:21:00.918Z,8.43
2019-04-14T21:23:45.046Z,10.70
2019-04-14T21:26:26.247Z,7.17
2019-04-14T21:29:19.531Z,7.70
2019-04-14T21:32:11.385Z,9.73
2019-04-14T21:34:59.746Z,10.63
2019-04-14T21:37:52.082Z,8.70
2019-04-14T21:40:43.893Z,7.43
2019-04-14T21:43:33.617Z,9.17
2019-04-14T21:46:48.035Z,8.60
2019-04-14T21:49:45.512Z,8.80
2019-04-14T21:52:55.584Z,9.40
2019-04-14T21:55:28.702Z,10.10
2019-04-14T21:58:22.459Z,10.40
2019-04-14T22:01:54.611Z,14.60
2019-04-14T22:04:44.580Z,12.47
2019-04-14T22:07:38.315Z,10.93
2019-04-14T22:10:32.812Z,10.50
2019-04-14T22:13:02.156Z,11.60
2019-04-14T22:15:31.455Z,13.47
2019-04-14T22:18:01.605Z,14.67
2019-04-14T22:20:30.915Z,15.77
2019-04-14T22:23:01.107Z,11.53
2019-04-14T22:25:30.496Z,18.40
2019-04-14T22:27:59.915Z,17.93
2019-04-14T22:30:29.255Z,15.10
2019-04-14T22:32:58.638Z,15.20
2019-04-14T22:35:28.020Z,14.53
2019-04-14T22:37:57.314Z,15.43
2019-04-14T22:40:26.635Z,18.17
2019-04-14T22:42:58.005Z,19.17
2019-04-14T22:45:27.341Z,16.03
2019-04-14T22:47:56.723Z,17.83
2019-04-14T22:50:26.403Z,17.00
2019-04-14T22:52:55.849Z,19.13
2019-04-14T22:55:26.243Z,19.10
2019-04-14T22:57:57.898Z,15.50
2019-04-14T23:00:43.027Z,15.80
2019-04-14T23:03:38.707Z,17.60
2019-04-14T23:06:23.263Z,16.00
2019-04-14T23:08:56.475Z,17.73
2019-04-14T23:11:40.895Z,17.57
2019-04-14T23:14:29.883Z,16.77
2019-04-14T23:17:16.319Z,20.63
2019-04-14T23:20:04.590Z,17.23
2019-04-14T23:23:01.937Z,18.70
2019-04-14T23:25:31.259Z,16.63
2019-04-14T23:28:00.555Z,18.87
2019-04-14T23:30:29.859Z,21.87
2019-04-14T23:33:14.111Z,19.27
2019-04-14T23:35:43.468Z,17.37
2019-04-14T23:38:12.763Z,19.43
2019-04-14T23:40:42.131Z,22.43
2019-04-14T23:43:12.031Z,24.40
2019-04-14T23:45:41.338Z,18.93
2019-04-14T23:48:15.776Z,18.43
2019-04-14T23:50:48.582Z,20.67
2019-04-14T23:53:23.363Z,20.20
2019-04-14T23:55:57.906Z,25.33
2019-04-14T23:58:27.375Z,22.43
